This is the latest recevied weather packets stored in our database for station/object BMCB-34. If no packets are shown the sender has not sent any weather packets the latest 10 day(s).
| Time | Temp. | Humidity | Pressure | Rain* | Wind** | Luminosity | Snow |
|---|---|---|---|---|---|---|---|
| 1777318830 | 15° C | 58% | 1013 hPa | 0 mm | - | 0 W/m² | - |
| 1777318240 | 15° C | 58% | 1013 hPa | 0 mm | - | 0 W/m² | - |
| 1777318232 | 15.56° C | 56% | 1013 hPa | 0 mm | - | 0 W/m² | - |
| 1777317040 | 16.11° C | 54% | 1012.9 hPa | 0 mm | - | 0 W/m² | - |
| 1777314634 | 17.22° C | 49% | 1012.8 hPa | 0 mm | - | 18 W/m² | - |
| 1777311632 | 19.44° C | 40% | 1013 hPa | 0 mm | - | 82 W/m² | - |
| 1777307431 | 20.56° C | 34% | 1013.2 hPa | 0 mm | - | 332 W/m² | - |
| 1777305035 | 20.56° C | 34% | 1013.5 hPa | 0 mm | - | 320 W/m² | - |
| 1777304444 | 20° C | 35% | 1013.6 hPa | 0 mm | - | 304 W/m² | - |
| 1777303237 | 20.56° C | 34% | 1013.6 hPa | 0 mm | - | 290 W/m² | - |
| 1777302633 | 21.11° C | 33% | 1013.8 hPa | 0 mm | - | 506 W/m² | - |
| 1777293016 | 19.44° C | 39% | 1015.3 hPa | 0 mm | - | 476 W/m² | - |
| 1777290617 | 18.89° C | 40% | 1015.7 hPa | 0 mm | - | 508 W/m² | - |
| 1777289416 | 18.33° C | 39% | 1016 hPa | 0 mm | - | 476 W/m² | - |
| 1777285219 | 17.78° C | 40% | 1016.6 hPa | 0 mm | - | 508 W/m² | - |
| 1777283420 | 16.67° C | 43% | 1016.8 hPa | 0 mm | - | 442 W/m² | - |
| 1777282823 | 16.67° C | 43% | 1016.8 hPa | 0 mm | - | 442 W/m² | - |
| 1777282224 | 16.11° C | 43% | 1016.8 hPa | 0 mm | - | 496 W/m² | - |
| 1777281624 | 15.56° C | 44% | 1017 hPa | 0 mm | - | 480 W/m² | - |
| 1777279823 | 14.44° C | 48% | 1017.2 hPa | 0 mm | - | 398 W/m² | - |
| 1777277424 | 13.33° C | 52% | 1017.4 hPa | 0 mm | - | 312 W/m² | - |
| 1777276824 | 12.78° C | 53% | 1017.4 hPa | 0 mm | - | 304 W/m² | - |
| 1777276222 | 12.78° C | 54% | 1017.4 hPa | 0 mm | - | 310 W/m² | - |
| 1777275624 | 12.22° C | 55% | 1017.4 hPa | 0 mm | - | 280 W/m² | - |
| 1777275024 | 12.22° C | 56% | 1017.4 hPa | 0 mm | - | 252 W/m² | - |
* Rain latest hour (hover to see other rain measurements)
** Current wind speed in m/s (hover to see current wind gust speed)